McAdenville, NC (28101)

10:22 AM EDT on September 25, 2016 (GMT -0400)
Church Street | | Change Station

Elev 652 ft 35.25 °N, 81.08 °W | Updated 5 minutes ago

Clear
Clear
74.3 °F
Feels Like 74 °F
N
0.6
Wind Variable Wind from SSW
Gusts 3.1 mph

Today
High -- | Low -- °F
--% Chance of Precip.
Yesterday
High -- | Low -- °F
Precip. -- in
Pressure 30.12 in
Visibility 9.0 miles
Clouds Clear
Heat Index 74 °F
Dew Point 69 °F
Humidity 84%
Rainfall 0.00 in
Snow Depth Not available.
7:14 AM 7:16 PM
Waning Crescent, 27% visible
METAR KAKH 251354Z AUTO 02005KT 9SM CLR 25/19 A3014 RMK AO2 SLP199 T02500189
Pressure 30.12 in
Visibility 9.0 miles
Clouds Clear
Heat Index 74 °F
Dew Point 69 °F
Humidity 84%
Rainfall 0.00 in
Snow Depth Not available.
7:14 AM 7:16 PM
Waning Crescent, 27% visible
METAR KAKH 251354Z AUTO 02005KT 9SM CLR 25/19 A3014 RMK AO2 SLP199 T02500189

10-Day Weather Forecast

Almanac

Astronomy

Sep. 25, 2016 Rise Set
Actual Time
Civil Twilight
Nautical Twilight
Astronomical Twilight
Moon
Length of Visible Light
Length of Day
Tomorrow will be .
, % of the Moon is Illuminated

Today's Extremes

State Highs State Lows

Community

WunderPhotos

Upload Photos

1,941,615 photos uploaded!

WunderBlog® & News

Nearby

Air Quality

  Air Quality AQ Index Pollutant
Not available.

Snow Depth

Station Depth Elevation

Earthquake Activity

City Distance Mag. Time & Date
Minimum magnitude displayed is 2.5.

Coastal Water Temperatures

Place Temperature

Stations

Nearby Weather Stations

Station Location Temp. Windchill Dew Point Humidity Wind Precip. Elev Updated Type
                   

Watches & Warnings

There are currently no watches in effect.